Time;durP1;ratioP1;P1;durP2;ratioP2;P2;SDS_P1;SDS_P2;PMS_P1;PMS_P2;Temp;Humidity;BMP_temperature;BMP_pressure;BME280_temperature;BME280_humidity;BME280_pressure;Samples;Min_cycle;Max_cycle;Signal;HPM_P1;HPM_P2
2023/02/19 00:00:04;;;;;;;11.90;4.70;;;;;;;1.09;100.00;98993.44;105905;1254;61002;-59
2023/02/19 00:02:40;;;;;;;9.70;4.10;;;;;;;1.10;100.00;98988.73;105616;1256;75293;-60
2023/02/19 00:05:09;;;;;;;11.80;4.20;;;;;;;1.10;100.00;98986.69;105800;1254;68553;-59
2023/02/19 00:07:38;;;;;;;7.90;3.80;;;;;;;1.10;100.00;98985.50;105598;1254;73225;-60
2023/02/19 00:10:07;;;;;;;11.20;4.10;;;;;;;1.11;100.00;98983.55;105865;1254;62464;-60
2023/02/19 00:12:36;;;;;;;8.80;3.60;;;;;;;1.11;100.00;98985.15;106009;1254;61583;-61
2023/02/19 00:15:06;;;;;;;10.00;3.90;;;;;;;1.13;100.00;98989.77;105807;1256;75634;-59
2023/02/19 00:17:35;;;;;;;7.80;4.00;;;;;;;1.14;100.00;98990.23;105725;1254;68766;-60
2023/02/19 00:20:06;;;;;;;10.30;4.50;;;;;;;1.14;100.00;98990.73;105715;1254;74077;-59
2023/02/19 00:22:35;;;;;;;8.50;4.20;;;;;;;1.14;100.00;98988.57;105760;1254;60780;-59
2023/02/19 00:25:04;;;;;;;9.50;4.00;;;;;;;1.12;100.00;98993.45;105808;1256;61969;-58
2023/02/19 00:27:33;;;;;;;9.90;3.90;;;;;;;1.12;100.00;98996.45;105877;1256;75085;-58
2023/02/19 00:30:03;;;;;;;7.80;2.90;;;;;;;1.12;100.00;99000.88;105818;1256;66787;-59
2023/02/19 00:32:32;;;;;;;8.90;3.20;;;;;;;1.11;100.00;99000.14;105794;1256;74368;-59
2023/02/19 00:35:01;;;;;;;9.00;3.70;;;;;;;1.09;100.00;98997.69;105723;1253;60428;-59
2023/02/19 00:37:31;;;;;;;7.90;3.40;;;;;;;1.09;100.00;98997.55;105912;1257;60836;-60
2023/02/19 00:39:59;;;;;;;7.40;3.40;;;;;;;1.08;100.00;99000.34;105813;1256;75119;-58
2023/02/19 00:42:28;;;;;;;8.90;3.30;;;;;;;1.08;100.00;99000.05;105840;1259;68669;-59
2023/02/19 00:44:57;;;;;;;6.80;3.30;;;;;;;1.08;100.00;98997.52;105725;1255;74142;-61
2023/02/19 00:47:26;;;;;;;9.00;3.20;;;;;;;1.08;100.00;98997.67;105782;1254;62686;-59
2023/02/19 00:49:54;;;;;;;8.40;3.90;;;;;;;1.08;100.00;98998.19;105754;1253;61866;-59
2023/02/19 00:52:23;;;;;;;6.30;3.60;;;;;;;1.07;100.00;98999.31;105982;1257;75148;-62
2023/02/19 00:54:52;;;;;;;7.20;3.00;;;;;;;1.06;100.00;99000.80;105861;1254;66750;-60
2023/02/19 00:57:20;;;;;;;6.00;3.00;;;;;;;1.06;100.00;99000.84;105769;1255;73064;-59
2023/02/19 00:59:49;;;;;;;7.80;3.10;;;;;;;1.04;100.00;99002.15;105639;1259;61570;-58
2023/02/19 01:02:18;;;;;;;9.10;3.70;;;;;;;1.03;100.00;99001.60;106041;1257;60592;-61
2023/02/19 01:04:49;;;;;;;7.70;3.70;;;;;;;1.03;100.00;99003.33;105963;1256;75686;-61
2023/02/19 01:07:18;;;;;;;8.70;3.20;;;;;;;1.03;100.00;99000.92;105961;1256;67140;-59
2023/02/19 01:09:47;;;;;;;7.50;2.70;;;;;;;1.02;100.00;99003.72;106111;1255;74385;-59
2023/02/19 01:12:16;;;;;;;9.90;3.60;;;;;;;1.01;100.00;99002.10;105891;1256;60430;-58
2023/02/19 01:14:45;;;;;;;7.10;3.20;;;;;;;1.01;100.00;99000.42;106117;1256;60581;-61
2023/02/19 01:17:15;;;;;;;9.80;2.90;;;;;;;1.02;100.00;99006.87;105578;1257;74918;-59
2023/02/19 01:19:43;;;;;;;6.00;2.40;;;;;;;1.01;100.00;99003.48;105671;1256;68461;-59
2023/02/19 01:22:12;;;;;;;6.80;2.60;;;;;;;1.02;100.00;99003.44;105896;1254;74160;-59
2023/02/19 01:24:40;;;;;;;6.50;2.70;;;;;;;1.02;100.00;99007.55;105831;1257;61731;-59
2023/02/19 01:27:09;;;;;;;6.50;3.40;;;;;;;1.02;100.00;99005.98;105848;1256;61254;-59
2023/02/19 01:29:38;;;;;;;8.40;2.60;;;;;;;1.01;100.00;99002.16;105790;1257;75261;-59
2023/02/19 01:32:07;;;;;;;5.10;2.40;;;;;;;1.01;100.00;98999.08;105715;1256;67609;-58
2023/02/19 01:34:40;;;;;;;5.80;2.40;;;;;;;1.00;100.00;99001.36;105900;1257;73968;-59
2023/02/19 01:37:10;;;;;;;9.80;2.40;;;;;;;1.00;100.00;98997.29;105791;1258;62548;-58
2023/02/19 01:39:40;;;;;;;8.00;2.80;;;;;;;0.98;100.00;98997.12;105869;1256;61716;-58
2023/02/19 01:42:13;;;;;;;7.80;2.40;;;;;;;0.96;100.00;98996.27;105796;1256;74514;-59
2023/02/19 01:44:41;;;;;;;5.60;2.50;;;;;;;0.95;100.00;98999.13;105926;1254;69015;-60
2023/02/19 01:47:10;;;;;;;6.60;2.40;;;;;;;0.95;100.00;98998.64;105770;1254;72921;-57
2023/02/19 01:49:47;;;;;;;7.90;3.40;;;;;;;0.94;100.00;99000.09;105764;1256;60543;-57
2023/02/19 01:52:31;;;;;;;7.60;2.40;;;;;;;0.94;100.00;98999.90;105769;1257;61080;-60
2023/02/19 01:55:01;;;;;;;6.80;2.40;;;;;;;0.93;100.00;99002.19;105722;1254;74372;-58
2023/02/19 01:57:33;;;;;;;6.60;2.70;;;;;;;0.94;100.00;99002.98;105765;1257;68608;-58
2023/02/19 02:00:05;;;;;;;8.10;3.00;;;;;;;0.94;100.00;99005.02;105810;1256;74494;-60
2023/02/19 02:02:41;;;;;;;8.60;3.20;;;;;;;0.96;100.00;99007.37;106289;1254;61716;-58
2023/02/19 02:05:40;;;;;;;9.60;3.00;;;;;;;0.98;100.00;99007.89;105740;1254;61185;-58
2023/02/19 02:10:57;;;;;;;8.50;3.30;;;;;;;1.00;100.00;99004.34;105501;1258;68087;-58
2023/02/19 02:13:25;;;;;;;5.60;2.60;;;;;;;1.00;100.00;99007.67;105446;1260;74489;-59
2023/02/19 02:16:10;;;;;;;6.70;2.50;;;;;;;1.00;100.00;99012.84;105872;1256;62476;-58
2023/02/19 02:18:55;;;;;;;7.40;2.40;;;;;;;1.02;100.00;99016.73;105758;1254;61661;-58
2023/02/19 02:21:43;;;;;;;;;;;;;;;1.06;100.00;99019.12;105744;1257;74444;-57
2023/02/19 02:24:26;;;;;;;8.10;2.30;;;;;;;1.06;100.00;99023.88;106327;1257;68454;-60
2023/02/19 02:27:33;;;;;;;7.20;2.60;;;;;;;1.05;100.00;99024.48;105426;1254;73974;-58
2023/02/19 02:30:36;;;;;;;7.20;2.70;;;;;;;1.05;100.00;99027.08;105801;1257;61144;-60
2023/02/19 02:33:18;;;;;;;7.70;2.70;;;;;;;1.06;100.00;99027.09;105652;1257;61953;-57
2023/02/19 02:35:55;;;;;;;6.10;2.20;;;;;;;1.08;100.00;99029.85;105425;1258;74749;-58
2023/02/19 02:38:28;;;;;;;6.50;2.60;;;;;;;1.09;100.00;99027.02;105934;1254;68612;-58
2023/02/19 02:40:56;;;;;;;11.70;3.40;;;;;;;1.10;100.00;99029.80;105713;1254;73536;-57
2023/02/19 02:43:25;;;;;;;7.50;2.40;;;;;;;1.12;100.00;99035.96;105530;1260;62482;-58
2023/02/19 02:45:54;;;;;;;8.90;3.00;;;;;;;1.12;100.00;99035.93;105795;1254;61562;-57
2023/02/19 02:48:42;;;;;;;5.90;2.80;;;;;;;1.12;100.00;99037.92;105832;1256;74387;-61
2023/02/19 02:51:23;;;;;;;6.90;2.10;;;;;;;1.13;100.00;99039.05;105805;1257;67690;-58
2023/02/19 02:56:51;;;;;;;5.30;2.20;;;;;;;1.14;100.00;99044.98;105797;1257;60420;-60
2023/02/19 02:59:22;;;;;;;8.60;2.60;;;;;;;1.13;100.00;99043.48;105567;1254;61816;-59
2023/02/19 03:07:58;;;;;;;6.20;2.70;;;;;;;1.13;100.00;99039.78;105420;1254;73792;-58
2023/02/19 03:10:49;;;;;;;4.60;2.20;;;;;;;1.13;100.00;99039.11;105446;1260;61709;-58
2023/02/19 03:19:20;;;;;;;6.40;2.60;;;;;;;1.13;100.00;99046.40;105988;1257;67620;-59
2023/02/19 03:22:02;;;;;;;5.60;2.20;;;;;;;1.13;100.00;99044.00;105938;1259;74254;-57
2023/02/19 03:27:18;;;;;;;8.70;2.70;;;;;;;1.11;100.00;99048.86;105311;1254;61712;-57
2023/02/19 03:29:49;;;;;;;7.50;2.10;;;;;;;1.11;100.00;99047.36;105510;1255;75071;-58
2023/02/19 03:32:23;;;;;;;9.00;2.80;;;;;;;1.11;100.00;99048.67;105481;1257;68774;-58
2023/02/19 03:35:02;;;;;;;11.30;3.10;;;;;;;1.11;100.00;99048.90;105767;1255;73271;-58
2023/02/19 03:37:46;;;;;;;10.50;3.10;;;;;;;1.12;100.00;99052.39;105333;1254;61755;-58
2023/02/19 03:40:15;;;;;;;6.10;2.80;;;;;;;1.13;100.00;99056.50;105616;1257;60743;-57
2023/02/19 03:43:18;;;;;;;7.20;3.20;;;;;;;1.14;100.00;99055.21;105641;1260;74557;-57
2023/02/19 03:45:53;;;;;;;7.20;2.90;;;;;;;1.15;100.00;99057.70;105773;1257;67984;-57
2023/02/19 03:49:03;;;;;;;8.70;2.40;;;;;;;1.16;100.00;99058.32;105618;1261;74752;-59
2023/02/19 03:51:43;;;;;;;9.60;3.40;;;;;;;1.15;100.00;99059.28;106387;1254;60440;-57
2023/02/19 03:54:36;;;;;;;7.80;3.40;;;;;;;1.14;100.00;99054.94;105650;1260;60862;-58
2023/02/19 03:57:07;;;;;;;9.00;3.00;;;;;;;1.14;100.00;99062.06;105782;1253;75127;-59
2023/02/19 03:59:48;;;;;;;9.30;3.00;;;;;;;1.14;100.00;99064.66;105693;1256;68565;-60
2023/02/19 04:02:30;;;;;;;9.30;3.10;;;;;;;1.15;100.00;99067.81;105893;1254;74238;-58
2023/02/19 04:05:13;;;;;;;9.70;3.00;;;;;;;1.15;100.00;99071.22;105905;1260;61360;-59
2023/02/19 04:07:44;;;;;;;8.50;2.60;;;;;;;1.15;100.00;99070.86;105675;1254;61700;-58
2023/02/19 04:10:13;;;;;;;;;;;;;;;1.16;100.00;99068.71;105854;1254;74688;-59
2023/02/19 04:13:07;;;;;;;7.00;2.60;;;;;;;1.17;100.00;99072.91;105713;1257;68525;-61
2023/02/19 04:15:37;;;;;;;6.90;2.40;;;;;;;1.17;100.00;99078.34;105706;1257;74310;-58
2023/02/19 04:18:11;;;;;;;6.70;2.50;;;;;;;1.18;100.00;99082.07;105546;1255;60536;-58
2023/02/19 04:20:42;;;;;;;7.10;2.70;;;;;;;1.18;100.00;99081.19;105617;1257;61479;-59
2023/02/19 04:23:11;;;;;;;9.30;3.20;;;;;;;1.18;100.00;99089.88;105530;1255;74857;-58
2023/02/19 04:25:41;;;;;;;6.60;3.00;;;;;;;1.18;100.00;99096.88;105785;1256;67777;-57
2023/02/19 04:28:10;;;;;;;8.80;3.20;;;;;;;1.17;100.00;99099.20;105937;1257;74156;-60
2023/02/19 04:30:38;;;;;;;8.80;3.70;;;;;;;1.17;100.00;99104.17;105809;1260;60455;-59
2023/02/19 04:33:08;;;;;;;6.00;2.70;;;;;;;1.17;100.00;99105.52;105908;1257;61865;-58
2023/02/19 04:35:38;;;;;;;7.40;2.70;;;;;;;1.17;100.00;99107.09;105752;1254;75516;-58
2023/02/19 04:38:07;;;;;;;7.00;2.60;;;;;;;1.18;100.00;99111.84;105879;1257;67625;-59
2023/02/19 04:40:36;;;;;;;8.50;3.90;;;;;;;1.19;100.00;99115.00;105991;1255;72576;-59
2023/02/19 04:43:05;;;;;;;8.90;3.30;;;;;;;1.19;100.00;99119.45;105755;1257;62275;-58
2023/02/19 04:45:36;;;;;;;9.90;3.00;;;;;;;1.20;100.00;99122.38;105720;1254;61722;-58
2023/02/19 04:48:04;;;;;;;12.50;3.30;;;;;;;1.20;100.00;99130.77;105889;1254;75137;-58
2023/02/19 04:50:33;;;;;;;10.00;3.50;;;;;;;1.21;100.00;99131.91;105944;1254;67430;-59
2023/02/19 04:53:02;;;;;;;9.20;3.40;;;;;;;1.23;100.00;99135.11;105912;1257;72928;-58
2023/02/19 04:55:35;;;;;;;9.90;2.60;;;;;;;1.26;100.00;99134.55;105827;1254;61941;-60
2023/02/19 04:58:04;;;;;;;9.80;3.70;;;;;;;1.26;100.00;99133.98;106047;1254;61722;-59
2023/02/19 05:00:33;;;;;;;9.70;3.20;;;;;;;1.29;100.00;99134.73;105798;1257;74778;-59
2023/02/19 05:03:01;;;;;;;9.50;2.90;;;;;;;1.32;100.00;99135.42;105863;1257;68686;-58
2023/02/19 05:05:30;;;;;;;7.40;2.60;;;;;;;1.34;100.00;99136.37;105869;1253;72947;-58
2023/02/19 05:08:04;;;;;;;10.10;3.40;;;;;;;1.37;100.00;99140.25;105856;1257;61077;-58
2023/02/19 05:10:33;;;;;;;7.10;3.20;;;;;;;1.39;100.00;99141.08;105775;1257;62313;-58
2023/02/19 05:13:01;;;;;;;11.00;3.70;;;;;;;1.42;100.00;99140.10;105441;1254;221439;-58
2023/02/19 05:15:31;;;;;;;5.80;2.80;;;;;;;1.45;100.00;99141.02;105594;1254;68007;-58
2023/02/19 05:18:00;;;;;;;6.80;2.80;;;;;;;1.49;100.00;99139.43;106075;1254;74048;-60
2023/02/19 05:20:29;;;;;;;7.30;3.40;;;;;;;1.51;100.00;99145.71;105848;1253;61499;-59
2023/02/19 05:22:57;;;;;;;10.40;4.00;;;;;;;1.54;100.00;99147.81;105965;1254;61682;-58
2023/02/19 05:25:26;;;;;;;9.80;3.60;;;;;;;1.57;100.00;99151.27;105762;1254;74280;-58
2023/02/19 05:28:15;;;;;;;11.80;4.00;;;;;;;1.61;100.00;99153.30;105896;1254;67567;-60
2023/02/19 05:30:50;;;;;;;12.40;4.30;;;;;;;1.65;100.00;99154.78;105810;1258;73225;-58
2023/02/19 05:33:19;;;;;;;9.00;3.50;;;;;;;1.71;100.00;99154.73;105801;1256;60437;-61
2023/02/19 05:35:50;;;;;;;9.80;3.80;;;;;;;1.76;100.00;99156.36;105558;1258;60485;-61
2023/02/19 05:38:19;;;;;;;7.00;3.30;;;;;;;1.83;100.00;99152.83;105688;1253;74925;-59
2023/02/19 05:40:47;;;;;;;8.80;3.90;;;;;;;1.89;100.00;99151.30;105844;1254;68681;-59
2023/02/19 05:43:37;;;;;;;9.90;4.20;;;;;;;1.99;100.00;99151.34;105489;1255;74095;-60
2023/02/19 05:46:06;;;;;;;10.10;4.40;;;;;;;2.09;100.00;99151.17;105778;1254;62772;-59
2023/02/19 05:48:35;;;;;;;8.20;3.50;;;;;;;2.21;100.00;99155.67;105777;1257;62077;-59
2023/02/19 05:51:14;;;;;;;9.70;4.00;;;;;;;2.33;100.00;99158.35;105858;1254;75294;-61
2023/02/19 05:53:43;;;;;;;6.90;3.70;;;;;;;2.47;100.00;99162.43;105712;1256;68079;-58
2023/02/19 05:56:36;;;;;;;10.40;4.70;;;;;;;2.59;100.00;99156.02;105800;1257;72621;-59
2023/02/19 05:59:07;;;;;;;9.90;3.30;;;;;;;2.72;100.00;99156.23;105662;1254;62621;-62
2023/02/19 06:01:36;;;;;;;8.80;4.30;;;;;;;2.80;100.00;99156.40;105756;1254;60857;-59
2023/02/19 06:04:05;;;;;;;10.10;4.20;;;;;;;2.87;100.00;99155.70;105453;1257;74317;-58
2023/02/19 06:06:34;;;;;;;9.40;4.10;;;;;;;2.91;100.00;99158.14;105840;1254;69338;-59
2023/02/19 06:09:03;;;;;;;8.80;3.60;;;;;;;2.96;100.00;99150.48;105749;1253;72987;-59
2023/02/19 06:11:32;;;;;;;11.10;4.00;;;;;;;2.99;100.00;99149.33;105792;1254;61781;-58
2023/02/19 06:14:00;;;;;;;9.70;4.60;;;;;;;3.01;100.00;99150.08;105765;1254;62054;-59
2023/02/19 06:16:31;;;;;;;10.00;3.90;;;;;;;3.01;100.00;99143.73;105824;1253;73601;-59
2023/02/19 06:19:02;;;;;;;10.00;4.00;;;;;;;3.02;100.00;99141.40;105683;1254;67737;-59
2023/02/19 06:21:32;;;;;;;8.30;3.70;;;;;;;3.02;100.00;99141.80;105512;1254;73261;-58
2023/02/19 06:24:06;;;;;;;9.20;4.20;;;;;;;3.03;100.00;99140.05;105972;1257;60313;-60
2023/02/19 06:26:36;;;;;;;10.90;4.60;;;;;;;3.07;100.00;99142.24;106005;1254;61049;-60
2023/02/19 06:29:04;;;;;;;10.90;4.60;;;;;;;3.09;100.00;99144.43;105624;1255;73874;-59
2023/02/19 06:31:33;;;;;;;9.10;4.20;;;;;;;3.12;100.00;99142.76;105757;1257;67337;-62
2023/02/19 06:34:03;;;;;;;10.30;4.00;;;;;;;3.13;100.00;99137.25;105932;1256;74286;-60
2023/02/19 06:36:33;;;;;;;11.10;3.90;;;;;;;3.14;100.00;99138.27;105656;1257;62660;-59
2023/02/19 06:39:02;;;;;;;10.60;4.20;;;;;;;3.13;100.00;99145.65;105879;1254;60428;-59
2023/02/19 06:41:32;;;;;;;9.50;4.10;;;;;;;3.17;100.00;99147.00;105861;1257;75401;-59
2023/02/19 06:44:00;;;;;;;11.30;4.40;;;;;;;3.22;100.00;99146.14;105753;1255;69015;-59
2023/02/19 06:46:29;;;;;;;8.40;4.10;;;;;;;3.30;100.00;99150.98;105741;1253;73100;-62
2023/02/19 06:48:58;;;;;;;10.50;4.40;;;;;;;3.40;100.00;99149.19;105788;1254;61124;-62
2023/02/19 06:51:28;;;;;;;8.50;4.30;;;;;;;3.53;100.00;99149.75;105852;1255;61678;-60
2023/02/19 06:54:01;;;;;;;8.30;4.40;;;;;;;3.68;100.00;99151.52;105656;1254;74157;-60
2023/02/19 06:56:32;;;;;;;11.60;4.20;;;;;;;3.86;100.00;99148.52;105718;1254;68527;-60
2023/02/19 06:59:01;;;;;;;10.70;4.70;;;;;;;3.98;100.00;99152.22;105752;1254;73627;-60
2023/02/19 07:01:31;;;;;;;10.30;4.40;;;;;;;4.00;100.00;99151.27;105671;1258;60536;-59
2023/02/19 07:04:01;;;;;;;10.40;4.00;;;;;;;4.01;100.00;99146.75;105794;1254;61640;-58
2023/02/19 07:06:30;;;;;;;9.40;4.10;;;;;;;4.00;100.00;99145.11;105751;1254;75366;-61
2023/02/19 07:08:59;;;;;;;8.30;3.80;;;;;;;4.02;100.00;99147.11;105769;1254;67998;-59
2023/02/19 07:11:30;;;;;;;10.50;4.70;;;;;;;4.07;100.00;99141.60;105814;1254;72900;-59
2023/02/19 07:14:00;;;;;;;7.80;3.70;;;;;;;4.15;100.00;99138.99;105848;1254;62657;-61
2023/02/19 07:16:29;;;;;;;8.70;4.50;;;;;;;4.30;100.00;99137.71;105903;1253;61835;-60
2023/02/19 07:18:58;;;;;;;11.00;4.90;;;;;;;4.43;100.00;99139.52;106043;1254;75325;-61
2023/02/19 07:21:30;;;;;;;9.50;4.80;;;;;;;4.57;100.00;99134.20;105670;1257;67656;-59
2023/02/19 07:24:00;;;;;;;10.80;4.60;;;;;;;4.68;100.00;99135.54;105789;1254;73411;-58
2023/02/19 07:26:33;;;;;;;13.70;4.70;;;;;;;4.72;100.00;99132.35;105666;1254;62713;-59
2023/02/19 07:29:01;;;;;;;10.00;5.40;;;;;;;4.70;100.00;99132.87;105565;1257;61640;-58
2023/02/19 07:31:30;;;;;;;9.90;4.70;;;;;;;4.71;100.00;99131.19;105615;1257;75322;-57
2023/02/19 07:33:59;;;;;;;8.30;4.00;;;;;;;4.84;100.00;99131.11;105750;1253;67603;-58
2023/02/19 07:36:28;;;;;;;8.70;4.10;;;;;;;5.12;100.00;99137.09;105668;1257;72827;-57
2023/02/19 07:38:59;;;;;;;10.20;4.50;;;;;;;5.53;100.00;99137.67;105699;1256;60754;-59
2023/02/19 07:41:27;;;;;;;11.10;4.70;;;;;;;6.01;100.00;99134.66;105779;1256;60851;-57
2023/02/19 07:43:57;;;;;;;11.10;4.50;;;;;;;6.47;100.00;99136.41;105739;1256;75137;-57
2023/02/19 07:46:26;;;;;;;11.80;4.90;;;;;;;6.87;100.00;99131.63;105881;1254;68627;-58
2023/02/19 07:48:58;;;;;;;8.90;4.20;;;;;;;7.27;100.00;99126.38;105431;1257;73942;-58
2023/02/19 07:51:28;;;;;;;8.80;4.30;;;;;;;7.70;100.00;99122.42;105729;1254;62252;-57
2023/02/19 07:54:00;;;;;;;8.20;4.30;;;;;;;8.14;100.00;99120.13;105833;1253;61782;-58
2023/02/19 07:56:29;;;;;;;10.60;5.00;;;;;;;8.49;100.00;99113.96;105925;1253;74580;-59
2023/02/19 07:58:59;;;;;;;10.50;4.10;;;;;;;8.73;100.00;99116.56;105735;1257;68474;-60
2023/02/19 08:04:15;;;;;;;7.50;3.80;;;;;;;9.27;100.00;99110.34;105775;1254;61705;-58
2023/02/19 08:06:43;;;;;;;9.20;4.40;;;;;;;9.48;100.00;99113.67;105810;1256;62225;-56
2023/02/19 08:09:13;;;;;;;9.80;4.20;;;;;;;9.72;100.00;99106.36;105835;1254;75410;-57
2023/02/19 08:14:29;;;;;;;9.40;4.10;;;;;;;10.10;100.00;99113.77;105748;1257;73217;-57
2023/02/19 08:16:58;;;;;;;9.60;4.40;;;;;;;10.18;100.00;99116.77;105760;1257;61896;-55
2023/02/19 08:19:28;;;;;;;8.40;3.60;;;;;;;10.26;100.00;99119.77;105778;1253;61531;-58
2023/02/19 08:21:56;;;;;;;7.80;3.60;;;;;;;10.36;100.00;99123.56;105504;1257;75270;-56
2023/02/19 08:24:27;;;;;;;8.80;4.00;;;;;;;10.59;100.00;99121.10;105724;1254;69074;-56
2023/02/19 08:26:56;;;;;;;7.70;3.30;;;;;;;10.83;100.00;99116.23;105660;1257;74293;-55
2023/02/19 08:29:25;;;;;;;6.40;3.30;;;;;;;11.06;100.00;99115.65;105933;1254;60475;-56
2023/02/19 08:31:53;;;;;;;8.90;4.10;;;;;;;11.27;100.00;99113.47;105819;1256;61842;-56
2023/02/19 08:34:22;;;;;;;8.80;3.80;;;;;;;11.38;100.00;99116.73;105944;1257;75304;-60
2023/02/19 08:36:51;;;;;;;9.40;4.20;;;;;;;11.34;100.00;99116.29;105821;1253;68358;-57
2023/02/19 08:39:21;;;;;;;9.40;3.60;;;;;;;11.25;100.00;99114.16;105966;1254;72938;-57
2023/02/19 08:41:50;;;;;;;9.30;3.70;;;;;;;11.19;100.00;99116.31;105888;1254;60974;-57
2023/02/19 08:44:18;;;;;;;9.40;3.50;;;;;;;10.92;100.00;99123.36;105882;1258;60901;-59
2023/02/19 08:46:52;;;;;;;7.00;3.00;;;;;;;10.52;100.00;99124.20;105716;1257;75351;-56
2023/02/19 08:49:25;;;;;;;7.10;3.20;;;;;;;10.30;100.00;99133.20;106010;1256;68583;-58
2023/02/19 08:51:54;;;;;;;9.00;3.00;;;;;;;10.16;100.00;99134.38;105696;1254;73383;-57
2023/02/19 08:54:22;;;;;;;8.30;3.00;;;;;;;10.10;100.00;99137.69;105781;1254;61025;-58
2023/02/19 08:56:51;;;;;;;8.30;3.60;;;;;;;10.10;100.00;99136.50;105941;1253;60458;-56
2023/02/19 08:59:19;;;;;;;6.20;2.80;;;;;;;10.18;100.00;99143.34;105811;1254;75525;-59
2023/02/19 09:01:48;;;;;;;6.70;3.20;;;;;;;10.36;100.00;99140.52;105730;1254;69065;-56
2023/02/19 09:04:17;;;;;;;6.90;2.70;;;;;;;10.66;100.00;99128.27;105840;1253;73153;-59
2023/02/19 09:06:45;;;;;;;7.10;2.70;;;;;;;10.96;100.00;99132.25;105705;1257;61295;-57
2023/02/19 09:09:16;;;;;;;6.50;3.00;;;;;;;11.29;100.00;99126.95;106059;1253;61010;-56
2023/02/19 09:11:45;;;;;;;6.10;3.10;;;;;;;11.59;100.00;99117.27;105480;1257;75632;-57
2023/02/19 09:14:17;;;;;;;;;;;;;;;11.83;100.00;99118.55;105714;1257;68630;-57
2023/02/19 09:16:45;;;;;;;7.10;3.40;;;;;;;12.01;100.00;99118.52;106078;1257;74039;-55
2023/02/19 09:19:13;;;;;;;6.00;3.10;;;;;;;11.96;100.00;99115.84;105914;1254;61611;-58
2023/02/19 09:21:42;;;;;;;9.30;3.00;;;;;;;11.69;100.00;99120.34;105496;1254;61115;-55
2023/02/19 09:24:10;;;;;;;7.30;3.10;;;;;;;11.30;100.00;99120.05;105853;1254;75147;-55
2023/02/19 09:26:40;;;;;;;6.90;2.90;;;;;;;11.05;100.00;99124.54;105778;1257;67617;-56
2023/02/19 09:29:09;;;;;;;6.30;3.10;;;;;;;11.03;100.00;99120.29;106175;1254;73445;-57
2023/02/19 09:31:37;;;;;;;7.10;3.00;;;;;;;11.18;100.00;99121.49;105786;1256;61947;-57
2023/02/19 09:34:06;;;;;;;7.30;2.70;;;;;;;11.44;100.00;99113.52;105693;1257;61729;-56
2023/02/19 09:36:35;;;;;;;5.60;2.70;;;;;;;11.71;100.00;99112.57;105632;1254;74343;-56
2023/02/19 09:39:06;;;;;;;8.10;3.00;;;;;;;11.88;100.00;99117.48;105812;1256;67381;-56
2023/02/19 09:41:44;;;;;;;9.10;3.10;;;;;;;12.06;100.00;99121.96;105951;1257;74161;-57
2023/02/19 09:44:15;;;;;;;8.30;3.00;;;;;;;12.27;100.00;99122.67;105742;1257;60986;-58
2023/02/19 09:46:46;;;;;;;8.20;3.10;;;;;;;12.48;100.00;99124.79;105806;1254;61624;-56
2023/02/19 09:49:18;;;;;;;6.90;2.70;;;;;;;12.68;100.00;99120.92;105772;1256;75157;-56
2023/02/19 09:51:53;;;;;;;7.50;3.10;;;;;;;12.80;100.00;99118.01;105827;1257;67769;-56
2023/02/19 09:54:25;;;;;;;6.30;2.60;;;;;;;12.80;100.00;99117.56;105735;1254;73840;-56
2023/02/19 09:56:54;;;;;;;;;;;;;;;12.70;100.00;99118.44;105899;1256;60710;-55
2023/02/19 09:59:26;;;;;;;6.80;2.60;;;;;;;12.63;100.00;99120.25;105925;1253;61690;-57
2023/02/19 10:02:13;;;;;;;6.70;2.80;;;;;;;12.57;100.00;99116.07;105923;1254;75511;-56
2023/02/19 10:04:42;;;;;;;7.70;2.80;;;;;;;12.42;100.00;99116.07;105605;1254;67605;-55
2023/02/19 10:07:13;;;;;;;7.30;3.00;;;;;;;12.21;100.00;99114.11;105775;1254;74512;-56
2023/02/19 10:09:44;;;;;;;7.90;3.00;;;;;;;12.08;100.00;99116.36;105768;1256;61650;-56
2023/02/19 10:12:27;;;;;;;6.90;2.80;;;;;;;12.04;100.00;99116.90;105486;1253;61898;-56
2023/02/19 10:15:04;;;;;;;8.10;3.20;;;;;;;12.04;100.00;99113.61;105471;1254;74037;-57
2023/02/19 10:17:36;;;;;;;8.90;2.80;;;;;;;12.01;100.00;99118.22;105579;1257;68374;-56
2023/02/19 10:20:05;;;;;;;7.70;2.80;;;;;;;11.99;100.00;99116.69;105768;1254;72697;-57
2023/02/19 10:22:35;;;;;;;6.70;2.60;;;;;;;11.91;100.00;99122.60;105726;1257;61843;-57
2023/02/19 10:25:03;;;;;;;8.20;3.50;;;;;;;11.87;100.00;99119.27;105707;1256;61141;-57
2023/02/19 10:27:32;;;;;;;7.30;2.60;;;;;;;11.82;100.00;99117.23;106017;1255;75178;-57
2023/02/19 10:30:00;;;;;;;8.60;3.60;;;;;;;11.76;100.00;99117.08;105834;1254;67687;-59
2023/02/19 10:32:29;;;;;;;8.40;3.80;;;;;;;11.65;100.00;99117.64;105912;1254;73179;-57
2023/02/19 10:35:10;;;;;;;7.90;2.80;;;;;;;11.57;100.00;99120.19;105621;1254;60233;-58
2023/02/19 10:37:43;;;;;;;7.10;2.90;;;;;;;11.50;100.00;99119.05;105648;1253;61829;-57
2023/02/19 10:40:17;;;;;;;7.00;3.10;;;;;;;11.50;100.00;99119.45;105644;1253;75246;-55
2023/02/19 10:42:48;;;;;;;7.20;3.00;;;;;;;11.52;100.00;99128.51;105666;1254;67181;-57
2023/02/19 10:45:49;;;;;;;9.20;2.90;;;;;;;11.56;100.00;99119.02;105795;1258;74167;-56
2023/02/19 10:48:27;;;;;;;10.00;3.20;;;;;;;11.55;100.00;99123.91;105644;1257;61933;-57
2023/02/19 10:51:03;;;;;;;7.40;2.90;;;;;;;11.49;100.00;99126.85;105679;1257;60418;-56
2023/02/19 10:53:45;;;;;;;6.00;2.50;;;;;;;11.28;100.00;99131.02;105960;1254;74600;-57
2023/02/19 10:56:21;;;;;;;7.60;2.70;;;;;;;10.94;100.00;99132.87;105778;1255;68674;-56
2023/02/19 10:58:50;;;;;;;7.30;2.90;;;;;;;10.57;100.00;99138.70;105771;1254;74083;-55
2023/02/19 11:01:24;;;;;;;6.90;3.40;;;;;;;10.26;100.00;99138.51;105996;1252;61323;-56
2023/02/19 11:04:13;;;;;;;6.90;3.50;;;;;;;10.22;100.00;99143.29;106142;1256;61873;-57
2023/02/19 11:06:42;;;;;;;6.70;2.90;;;;;;;10.36;100.00;99149.25;105827;1257;75371;-58
2023/02/19 11:09:29;;;;;;;8.20;3.20;;;;;;;10.48;100.00;99150.19;105531;1255;68369;-57
2023/02/19 11:12:03;;;;;;;6.50;2.50;;;;;;;10.50;100.00;99145.34;105783;1257;74609;-55
2023/02/19 11:14:33;;;;;;;7.00;2.90;;;;;;;10.32;100.00;99149.52;105948;1255;60515;-58
2023/02/19 11:17:03;;;;;;;9.30;2.40;;;;;;;9.95;100.00;99150.40;105817;1253;60929;-58
2023/02/19 11:19:39;;;;;;;7.60;2.70;;;;;;;9.49;100.00;99145.23;105638;1254;74418;-56
2023/02/19 11:22:28;;;;;;;7.30;2.30;;;;;;;9.19;100.00;99144.35;105815;1256;68333;-57
2023/02/19 11:25:24;;;;;;;5.50;2.10;;;;;;;9.10;100.00;99139.85;105865;1254;73135;-56
2023/02/19 11:28:06;;;;;;;9.30;2.90;;;;;;;9.16;100.00;99136.80;105759;1254;62074;-55
2023/02/19 11:30:40;;;;;;;7.30;3.00;;;;;;;9.25;100.00;99136.47;105757;1256;60614;-56
2023/02/19 11:33:23;;;;;;;7.30;2.80;;;;;;;9.38;100.00;99130.25;106130;1256;74297;-59
2023/02/19 11:36:14;;;;;;;9.90;3.20;;;;;;;9.62;100.00;99133.00;105827;1254;68687;-56
2023/02/19 11:38:43;;;;;;;9.80;3.60;;;;;;;9.81;100.00;99128.31;105909;1253;72992;-58
2023/02/19 11:41:39;;;;;;;7.30;2.80;;;;;;;9.99;100.00;99126.88;105867;1253;61920;-55
2023/02/19 11:44:29;;;;;;;7.00;2.40;;;;;;;10.10;100.00;99124.20;106161;1253;60814;-58
2023/02/19 11:46:58;;;;;;;5.50;3.00;;;;;;;10.10;100.00;99124.30;105922;1253;73955;-55
2023/02/19 11:49:57;;;;;;;6.60;2.70;;;;;;;10.14;100.00;99128.10;106030;1253;67578;-56
2023/02/19 11:53:01;;;;;;;8.40;3.00;;;;;;;10.12;100.00;99123.09;105947;1253;72913;-56
2023/02/19 11:55:57;;;;;;;6.60;2.60;;;;;;;10.03;100.00;99126.14;105960;1256;60440;-56
2023/02/19 11:58:41;;;;;;;7.00;2.40;;;;;;;9.96;100.00;99129.62;106060;1254;61618;-58
2023/02/19 12:01:16;;;;;;;8.40;2.50;;;;;;;9.86;100.00;99137.90;105786;1253;75396;-56
2023/02/19 12:04:24;;;;;;;10.30;3.00;;;;;;;9.82;100.00;99142.95;105751;1256;67692;-56
2023/02/19 12:07:17;;;;;;;10.70;3.50;;;;;;;9.72;100.00;99141.14;105802;1254;74009;-56
2023/02/19 12:10:15;;;;;;;9.20;2.70;;;;;;;9.64;100.00;99145.82;105624;1256;60772;-57
2023/02/19 12:13:23;;;;;;;9.90;3.20;;;;;;;9.59;100.00;99143.94;106020;1254;61587;-59
2023/02/19 12:16:04;;;;;;;6.50;2.30;;;;;;;9.48;100.00;99145.41;105917;1254;75499;-58